« Back
NWS Peachtree City, Ga » Text Product » CSG Terminal Aerodrome Forecast


Printer-friendly Version
Current Version              Previous Versions:   1  2  3  4  5  6  7  8  9  

Terminal Aerodrome Forecast

027
FTUS42 KFFC 301129
TAFCSG
TAF
KCSG 301129Z 3012/3112 VRB03KT P6SM FEW060 SCT120
     FM301400 06006KT P6SM SCT040 SCT120
     FM301700 36007KT P6SM VCSH BKN050
      TEMPO 3019/3022 VRB10G20KT 6SM -TSRA BKN040CB
     FM310100 VRB04KT P6SM SCT060 SCT250=

USA.gov is the U.S. government's official web portal to all federal, state and local government web resources and services.